Terminal Aerodrome Forecast
Issued by NWS

Home | Current Version | Previous Version | Text Only | Print | Product List | Glossary On
Versions: 1 2 3 4 5 6 7 8 9 10 11 12 13 14
000
FTUS43 KOAX 252320
TAFCDR
TAF
KCDR 252320Z 2600/2624 08010KT P6SM -TSRA BKN050CB
     FM260300 16012KT P6SM VCSH SCT018 BKN030
     FM260600 16013KT 3SM BR OVC015
     FM260800 08010KT 3SM -RA BR BKN006 OVC012
     FM261400 14010KT 5SM -RA BR SCT006 OVC015=

USA.gov is the U.S. government's official web portal to all federal, state and local government web resources and services.